X  Sluiten METAR luchtvaart weer gegevens      EBBR Brussels Airport
Temperatuur
7°C Temperatuur
-1°C Dauwpunt
57% Vochtigheid



Wind
13 KM/U
8 MPH
4 M/S
7 KTS



10°
Noord
Huidig weer

Veel verspreide wolken Veel verspreide wolken
Luchtdruk 1028.92 (hPa) - 30.38 (inHg)
Zicht 6.2 (mijl) - 10 (km)
Vliegveld
Vliegveld code EBBR

Locatie : Brussels Airport
Afstand: 14 (km)

Metar:
EBBR 141620Z 01007KT 9999 SCT035 07/M01 Q1029 NOSIG

Tijd: 2021-04-14 18:20 CEST